Time;durP1;ratioP1;P1;durP2;ratioP2;P2;SDS_P1;SDS_P2;PMS_P1;PMS_P2;Temp;Humidity;BMP_temperature;BMP_pressure;BME280_temperature;BME280_humidity;BME280_pressure;Samples;Min_cycle;Max_cycle;Signal;HPM_P1;HPM_P2
2021/12/26 00:01:18;;;;;;;5.97;1.45;;;;;;;-3.44;60.58;99513.41;5097339;28;20062;-77
2021/12/26 00:03:45;;;;;;;3.17;1.10;;;;;;;-3.36;61.17;99521.44;5096812;28;20031;-78
2021/12/26 00:06:18;;;;;;;2.92;1.20;;;;;;;-3.41;61.15;99526.31;5096867;28;20028;-78
2021/12/26 00:08:45;;;;;;;2.90;1.00;;;;;;;-3.45;61.06;99524.06;5097159;28;20028;-77
2021/12/26 00:11:11;;;;;;;1.80;0.80;;;;;;;-3.37;61.54;99525.03;5096982;28;20107;-78
2021/12/26 00:13:37;;;;;;;2.78;1.50;;;;;;;-3.43;61.19;99522.97;5096730;28;20075;-78
2021/12/26 00:16:03;;;;;;;3.40;1.40;;;;;;;-3.44;61.52;99529.22;5096855;28;20410;-77
2021/12/26 00:18:28;;;;;;;;;;;;;;;-3.46;61.50;99522.41;5095778;28;20028;-78
2021/12/26 00:20:54;;;;;;;3.17;1.30;;;;;;;-3.47;62.03;99518.94;5096733;28;19942;-78
2021/12/26 00:23:21;;;;;;;;;;;;;;;-3.52;61.86;99508.00;5096842;28;20032;-78
2021/12/26 00:25:47;;;;;;;4.30;1.98;;;;;;;-3.47;61.28;99500.50;5097079;28;20007;-77
2021/12/26 00:28:13;;;;;;;5.28;1.55;;;;;;;-3.38;61.40;99502.31;5096314;28;20028;-78
2021/12/26 00:30:42;;;;;;;1.70;0.93;;;;;;;-3.42;61.60;99500.94;5096123;28;20040;-77
2021/12/26 00:33:08;;;;;;;3.70;0.98;;;;;;;-3.56;61.80;99496.06;5095002;28;20036;-77
2021/12/26 00:35:33;;;;;;;4.13;1.30;;;;;;;-3.52;61.94;99502.72;5095056;28;20032;-78
2021/12/26 00:37:59;;;;;;;2.55;1.23;;;;;;;-3.42;62.44;99493.03;5095295;28;20036;-78
2021/12/26 00:40:26;;;;;;;4.13;1.42;;;;;;;-3.35;61.73;99488.84;5096310;28;20411;-77
2021/12/26 00:42:53;;;;;;;2.53;1.00;;;;;;;-3.27;61.59;99491.66;5094635;28;20040;-78
2021/12/26 00:45:19;;;;;;;3.08;1.20;;;;;;;-3.15;62.22;99484.41;5096634;28;20024;-78
2021/12/26 00:47:44;;;;;;;3.50;1.35;;;;;;;-3.22;61.44;99493.84;5096821;28;20034;-78
2021/12/26 00:50:15;;;;;;;2.63;0.88;;;;;;;-3.23;61.34;99489.56;5096406;28;20485;-78
2021/12/26 00:52:40;;;;;;;5.00;1.77;;;;;;;-3.28;61.84;99491.78;5096102;28;20028;-78
2021/12/26 00:55:09;;;;;;;3.33;0.90;;;;;;;-3.51;61.84;99483.31;5096024;28;20077;-78
2021/12/26 00:57:35;;;;;;;3.05;1.20;;;;;;;-3.34;61.96;99482.63;5096230;28;20090;-78
2021/12/26 01:00:00;;;;;;;5.07;1.40;;;;;;;-3.31;62.23;99474.44;5096171;28;20043;-78
2021/12/26 01:02:26;;;;;;;2.67;1.17;;;;;;;-3.29;62.42;99474.31;5096372;28;20036;-78
2021/12/26 01:04:51;;;;;;;2.25;1.52;;;;;;;-3.21;62.01;99469.97;5096046;28;20086;-77
2021/12/26 01:07:33;;;;;;;2.30;1.10;;;;;;;-3.18;62.46;99476.78;5096442;28;20030;-78
2021/12/26 01:09:59;;;;;;;2.78;0.93;;;;;;;-3.15;62.38;99474.69;5095823;28;20432;-77
2021/12/26 01:12:24;;;;;;;4.45;1.58;;;;;;;-3.25;62.67;99479.16;5094506;28;20024;-77
2021/12/26 01:14:57;;;;;;;3.33;0.90;;;;;;;-3.31;62.55;99482.34;5096118;28;20028;-78
2021/12/26 01:17:24;;;;;;;2.13;0.88;;;;;;;-3.32;62.58;99480.69;5096420;28;20425;-78
2021/12/26 01:19:52;;;;;;;3.70;1.15;;;;;;;-3.34;62.57;99477.34;5096208;28;20096;-77
2021/12/26 01:22:18;;;;;;;2.92;1.17;;;;;;;-3.30;63.00;99470.00;5095605;28;20435;-77
2021/12/26 01:24:44;;;;;;;;;;;;;;;-3.35;62.83;99475.69;5096161;28;20028;-78
2021/12/26 01:27:11;;;;;;;2.80;0.77;;;;;;;-3.31;62.58;99471.81;5095226;28;19960;-78
2021/12/26 01:29:37;;;;;;;4.78;1.45;;;;;;;-3.31;63.50;99468.34;5096576;28;20024;-78
2021/12/26 01:32:04;;;;;;;2.70;1.00;;;;;;;-3.35;63.57;99469.59;5096081;28;20028;-78
2021/12/26 01:34:30;;;;;;;2.83;1.23;;;;;;;-3.23;63.08;99463.22;5095366;28;20039;-78
2021/12/26 01:36:56;;;;;;;4.18;1.35;;;;;;;-3.19;62.96;99465.41;5095764;28;20028;-77
2021/12/26 01:39:22;;;;;;;3.05;1.30;;;;;;;-3.15;63.51;99471.22;5095081;28;20077;-78
2021/12/26 01:41:49;;;;;;;;;;;;;;;-3.10;63.08;99463.75;5096006;28;20028;-78
2021/12/26 01:44:15;;;;;;;3.83;0.88;;;;;;;-3.09;63.70;99461.94;5095633;28;19962;-78
2021/12/26 01:46:43;;;;;;;2.67;0.98;;;;;;;-3.04;63.56;99459.69;5095537;28;20043;-78
2021/12/26 01:49:15;;;;;;;5.43;1.45;;;;;;;-3.12;63.34;99462.22;5093877;28;20024;-78
2021/12/26 01:51:42;;;;;;;6.00;1.35;;;;;;;-3.15;63.51;99464.16;5095483;28;20024;-78
2021/12/26 01:54:10;;;;;;;3.75;1.40;;;;;;;-3.12;63.42;99465.69;5094221;28;20093;-78
2021/12/26 01:56:41;;;;;;;5.55;1.33;;;;;;;-3.15;63.75;99461.53;5095218;28;20024;-78
2021/12/26 01:59:08;;;;;;;4.15;1.60;;;;;;;-3.08;63.60;99463.63;5095251;28;20131;-78
2021/12/26 02:01:34;;;;;;;2.70;1.02;;;;;;;-3.09;63.81;99461.94;5095213;28;20107;-77
2021/12/26 02:04:01;;;;;;;4.22;1.48;;;;;;;-3.15;64.14;99464.16;5094939;28;20063;-78
2021/12/26 02:06:27;;;;;;;2.60;1.10;;;;;;;-3.16;63.79;99459.88;5095286;28;20047;-78
2021/12/26 02:08:52;;;;;;;10.93;1.23;;;;;;;-3.17;64.34;99462.63;5095518;28;20028;-78
2021/12/26 02:11:18;;;;;;;3.42;1.08;;;;;;;-3.13;64.16;99456.13;5095101;28;20482;-78
2021/12/26 02:13:43;;;;;;;2.35;1.38;;;;;;;-3.06;64.46;99453.75;5094898;28;20062;-78
2021/12/26 02:16:11;;;;;;;5.88;1.67;;;;;;;-3.03;64.05;99451.66;5094939;28;20040;-78
2021/12/26 02:18:37;;;;;;;6.53;1.15;;;;;;;-2.98;64.34;99448.59;5095047;28;20038;-78
2021/12/26 02:24:14;;;;;;;3.08;1.25;;;;;;;-3.00;64.02;99453.19;5094646;28;20062;-78
2021/12/26 02:29:20;;;;;;;4.00;1.30;;;;;;;-2.87;64.06;99451.09;5094714;28;20616;-78
2021/12/26 02:31:45;;;;;;;3.53;1.30;;;;;;;-2.80;63.92;99454.78;5094890;28;20065;-78
2021/12/26 02:34:11;;;;;;;2.55;1.10;;;;;;;-2.73;63.41;99447.16;5094848;28;20100;-78
2021/12/26 02:36:36;;;;;;;4.85;2.30;;;;;;;-2.88;64.00;99450.25;5095323;28;20501;-78
2021/12/26 02:39:03;;;;;;;5.53;1.20;;;;;;;-2.83;64.07;99442.72;5094894;28;20085;-78
2021/12/26 02:41:28;;;;;;;2.65;1.17;;;;;;;-2.84;63.94;99446.34;5093638;28;20035;-78
2021/12/26 02:43:53;;;;;;;3.83;1.30;;;;;;;-2.79;63.78;99443.28;5094785;28;20028;-78
2021/12/26 02:46:19;;;;;;;6.07;1.33;;;;;;;-2.83;63.35;99444.53;5094813;28;20112;-78
2021/12/26 02:48:44;;;;;;;2.85;1.13;;;;;;;-2.85;64.01;99447.31;5094766;28;20329;-78
2021/12/26 02:51:10;;;;;;;3.97;1.25;;;;;;;-2.91;64.23;99437.34;5094846;28;20112;-78
2021/12/26 02:53:35;;;;;;;2.75;1.05;;;;;;;-2.86;63.84;99435.09;5094832;28;20358;-78
2021/12/26 02:56:02;;;;;;;3.88;1.58;;;;;;;-2.74;64.28;99429.66;5094839;28;20028;-78
2021/12/26 02:58:28;;;;;;;3.05;1.38;;;;;;;-2.77;63.66;99430.78;5094501;28;20052;-78
2021/12/26 03:00:56;;;;;;;3.63;1.30;;;;;;;-2.86;63.56;99431.63;5094496;28;20034;-78
2021/12/26 03:03:21;;;;;;;2.45;1.20;;;;;;;-2.92;64.06;99433.06;5094712;28;20485;-79
2021/12/26 03:05:57;;;;;;;5.38;1.73;;;;;;;-2.87;64.37;99435.28;5093904;28;20028;-77
2021/12/26 03:08:23;;;;;;;3.45;1.20;;;;;;;-2.85;64.19;99434.13;5093936;28;20063;-78
2021/12/26 03:10:48;;;;;;;4.28;1.30;;;;;;;-2.91;63.89;99431.25;5093972;28;20063;-78
2021/12/26 03:13:15;;;;;;;2.95;1.42;;;;;;;-3.03;64.34;99440.28;5094635;28;20059;-78
2021/12/26 03:15:41;;;;;;;3.25;1.35;;;;;;;-2.97;64.37;99442.34;5094682;28;20108;-78
2021/12/26 03:18:08;;;;;;;2.88;1.13;;;;;;;-2.98;64.51;99441.53;5094902;28;20035;-78
2021/12/26 03:20:39;;;;;;;6.07;1.40;;;;;;;-3.03;64.40;99437.63;5097221;28;20036;-77
2021/12/26 03:23:06;;;;;;;2.60;1.10;;;;;;;-3.09;64.67;99440.88;5102388;28;20027;-77
2021/12/26 03:25:32;;;;;;;2.83;1.17;;;;;;;-3.05;64.65;99442.25;5097565;28;20020;-78
2021/12/26 03:27:58;;;;;;;3.08;1.42;;;;;;;-3.09;64.92;99444.34;5097862;28;20039;-78
2021/12/26 03:30:26;;;;;;;3.08;1.10;;;;;;;-3.03;64.37;99438.47;5097842;28;20040;-78
2021/12/26 03:32:52;;;;;;;1.75;1.00;;;;;;;-2.93;64.24;99441.09;5097941;28;20028;-78
2021/12/26 03:35:18;;;;;;;;;;;;;;;-2.88;64.27;99441.50;5095499;28;20099;-78
2021/12/26 03:37:43;;;;;;;2.40;1.15;;;;;;;-2.88;64.30;99444.16;5093864;28;20447;-78
2021/12/26 03:40:10;;;;;;;3.65;1.30;;;;;;;-2.86;63.92;99440.38;5094292;28;20032;-78
2021/12/26 03:42:36;;;;;;;3.78;1.20;;;;;;;-2.88;64.40;99438.88;5093217;28;20028;-78
2021/12/26 03:45:03;;;;;;;4.85;1.10;;;;;;;-2.87;64.28;99438.75;5094347;28;20043;-78
2021/12/26 03:47:29;;;;;;;4.93;1.50;;;;;;;-2.86;63.93;99440.38;5094293;28;20047;-78
2021/12/26 03:49:55;;;;;;;3.65;1.60;;;;;;;-2.88;63.96;99436.25;5093981;28;20447;-78
2021/12/26 03:52:22;;;;;;;2.80;1.30;;;;;;;-2.90;64.38;99431.09;5093915;28;20043;-78
2021/12/26 03:54:49;;;;;;;2.97;0.93;;;;;;;-2.84;63.97;99421.78;5094276;28;20062;-78
2021/12/26 03:57:15;;;;;;;1.58;1.00;;;;;;;-2.85;64.11;99430.66;5092293;28;20091;-78
2021/12/26 03:59:40;;;;;;;4.55;1.67;;;;;;;-2.89;64.08;99437.22;5093646;28;20024;-77
2021/12/26 04:02:06;;;;;;;3.40;1.05;;;;;;;-2.86;64.18;99429.00;5094066;28;20089;-77
2021/12/26 04:04:31;;;;;;;;;;;;;;;-2.90;64.21;99423.19;5094027;28;20114;-78
2021/12/26 04:06:57;;;;;;;3.58;1.33;;;;;;;-3.01;64.49;99426.00;5093774;28;19951;-77
2021/12/26 04:09:22;;;;;;;2.42;0.85;;;;;;;-3.04;64.67;99422.81;5094818;28;20462;-78
2021/12/26 04:11:48;;;;;;;3.08;1.40;;;;;;;-2.93;64.57;99420.84;5094193;28;20038;-77
2021/12/26 04:14:14;;;;;;;2.13;1.30;;;;;;;-2.97;64.06;99424.72;5093851;28;20078;-78
2021/12/26 04:16:40;;;;;;;2.65;1.00;;;;;;;-2.90;64.71;99422.38;5094405;28;20039;-77
2021/12/26 04:19:05;;;;;;;4.05;1.30;;;;;;;-2.88;64.00;99418.63;5095916;28;20024;-77
2021/12/26 04:21:31;;;;;;;3.65;1.15;;;;;;;-2.85;63.93;99414.84;5096247;28;20179;-78
2021/12/26 04:23:57;;;;;;;4.50;1.23;;;;;;;-2.78;64.25;99420.38;5096682;28;20043;-77
2021/12/26 04:26:22;;;;;;;3.20;1.25;;;;;;;-2.82;64.34;99412.75;5097264;28;20383;-77
2021/12/26 04:28:48;;;;;;;2.60;1.05;;;;;;;-2.88;64.25;99417.78;5097115;28;20028;-77
2021/12/26 04:31:13;;;;;;;4.95;1.90;;;;;;;-2.84;63.80;99419.13;5098562;28;20066;-77
2021/12/26 04:33:39;;;;;;;2.25;1.00;;;;;;;-2.94;64.48;99416.56;5101183;28;20464;-77
2021/12/26 04:36:05;;;;;;;2.95;1.67;;;;;;;-3.03;64.30;99416.56;5101729;28;20391;-78
2021/12/26 04:38:31;;;;;;;2.65;1.20;;;;;;;-3.11;65.01;99424.38;5100471;28;20036;-78
2021/12/26 04:40:57;;;;;;;2.70;1.27;;;;;;;-3.03;64.88;99416.56;5098996;28;20028;-78
2021/12/26 04:43:23;;;;;;;1.77;1.10;;;;;;;-2.89;65.22;99421.41;5100191;28;20042;-78
2021/12/26 04:45:50;;;;;;;3.10;1.38;;;;;;;-2.91;64.26;99418.91;5100171;28;20039;-78
2021/12/26 04:48:16;;;;;;;3.38;1.27;;;;;;;-3.02;64.71;99413.78;5101202;28;20024;-77
2021/12/26 04:50:41;;;;;;;2.72;1.17;;;;;;;-2.94;64.12;99419.19;5099965;28;20036;-77
2021/12/26 04:53:08;;;;;;;1.55;0.90;;;;;;;-2.87;64.13;99422.09;5100635;28;20434;-77
2021/12/26 04:55:33;;;;;;;;;;;;;;;-2.96;64.26;99415.03;5101723;28;20029;-78
2021/12/26 04:57:59;;;;;;;3.00;1.10;;;;;;;-2.90;63.65;99425.84;5099607;28;19920;-78
2021/12/26 05:00:28;;;;;;;2.75;1.17;;;;;;;-2.96;63.63;99421.13;5100191;28;20024;-78
2021/12/26 05:02:54;;;;;;;2.05;0.88;;;;;;;-3.00;64.11;99418.91;5099359;28;20466;-77
2021/12/26 05:05:21;;;;;;;3.67;1.23;;;;;;;-3.02;64.66;99413.78;5100395;28;20043;-78
2021/12/26 05:07:47;;;;;;;2.65;1.02;;;;;;;-2.92;64.42;99411.97;5100863;28;20024;-78
2021/12/26 05:10:17;;;;;;;3.10;1.00;;;;;;;-2.89;64.01;99408.22;5098466;28;20035;-78
2021/12/26 05:12:43;;;;;;;1.83;1.00;;;;;;;-2.85;64.42;99401.66;5099036;28;20379;-77
2021/12/26 05:15:09;;;;;;;3.28;1.00;;;;;;;-2.77;64.28;99406.22;5100095;28;20090;-77
2021/12/26 05:17:34;;;;;;;2.90;1.08;;;;;;;-2.76;63.92;99398.16;5098650;28;20088;-77
2021/12/26 05:20:00;;;;;;;2.78;1.20;;;;;;;-2.80;63.99;99397.63;5099260;28;20054;-78
2021/12/26 05:22:25;;;;;;;7.43;1.08;;;;;;;-2.80;63.74;99399.44;5099795;28;20066;-78
2021/12/26 05:24:51;;;;;;;4.57;1.42;;;;;;;-2.80;63.37;99394.16;5101553;28;20044;-77
2021/12/26 05:27:16;;;;;;;3.20;1.00;;;;;;;-2.87;63.48;99399.19;5101208;28;20050;-78
2021/12/26 05:29:42;;;;;;;1.77;0.88;;;;;;;-2.73;63.37;99394.41;5101732;28;20478;-78
2021/12/26 05:32:08;;;;;;;2.63;1.15;;;;;;;-2.85;63.52;99401.66;5101264;28;20032;-78
2021/12/26 05:34:34;;;;;;;3.95;1.10;;;;;;;-2.82;63.64;99393.47;5101568;28;20028;-79
2021/12/26 05:36:59;;;;;;;2.38;1.05;;;;;;;-2.85;63.61;99385.84;5101054;28;20095;-78
2021/12/26 05:39:24;;;;;;;2.95;1.27;;;;;;;-2.93;63.52;99377.84;5101148;28;20530;-78
2021/12/26 05:41:50;;;;;;;2.95;1.20;;;;;;;-2.84;63.62;99384.88;5099382;28;20028;-78
2021/12/26 05:44:15;;;;;;;3.08;0.95;;;;;;;-2.85;64.11;99385.84;5101003;28;20047;-77
2021/12/26 05:46:41;;;;;;;4.05;1.38;;;;;;;-2.78;63.81;99392.22;5101592;28;20486;-78
2021/12/26 05:49:07;;;;;;;4.43;1.48;;;;;;;-2.79;64.03;99390.53;5099383;28;20039;-78
2021/12/26 05:51:33;;;;;;;4.20;1.70;;;;;;;-2.86;64.04;99390.28;5099637;28;20028;-79
2021/12/26 05:53:58;;;;;;;3.45;1.17;;;;;;;-2.84;63.69;99395.41;5100648;28;20028;-79
2021/12/26 05:56:24;;;;;;;2.53;1.20;;;;;;;-2.85;64.07;99385.84;5100729;28;20063;-77
2021/12/26 05:58:49;;;;;;;3.63;1.50;;;;;;;-2.82;63.48;99381.13;5100604;28;20051;-80
2021/12/26 06:01:15;;;;;;;2.15;1.15;;;;;;;-2.83;64.05;99381.25;5100539;28;20040;-79
2021/12/26 06:03:40;;;;;;;4.63;1.52;;;;;;;-2.77;64.21;99387.78;5096527;28;20028;-79
2021/12/26 06:06:06;;;;;;;2.55;1.60;;;;;;;-2.77;63.79;99380.69;5097043;28;20433;-79
2021/12/26 06:08:31;;;;;;;2.15;1.30;;;;;;;-2.85;64.45;99380.56;5095610;28;20038;-78
2021/12/26 06:10:57;;;;;;;5.45;1.50;;;;;;;-2.92;64.83;99377.69;5100562;28;20039;-78
2021/12/26 06:13:22;;;;;;;2.47;1.15;;;;;;;-2.73;64.10;99378.59;5103048;28;20477;-78
2021/12/26 06:15:47;;;;;;;2.63;1.20;;;;;;;-2.63;63.93;99374.09;5100097;28;20054;-78
2021/12/26 06:18:13;;;;;;;5.15;1.38;;;;;;;-2.69;63.88;99385.25;5100340;28;20119;-78
2021/12/26 06:20:38;;;;;;;5.35;1.40;;;;;;;-2.86;64.08;99381.53;5102090;28;20055;-78
2021/12/26 06:23:03;;;;;;;3.28;1.13;;;;;;;-2.83;64.26;99383.91;5100600;28;20447;-79
2021/12/26 06:25:29;;;;;;;2.25;1.20;;;;;;;-2.73;63.73;99384.69;5100952;28;20028;-78
2021/12/26 06:27:54;;;;;;;5.32;2.15;;;;;;;-2.80;63.94;99387.09;5101528;28;20024;-78
2021/12/26 06:30:20;;;;;;;3.63;1.10;;;;;;;-2.82;64.52;99381.13;5100788;28;20433;-79
2021/12/26 06:32:45;;;;;;;2.42;1.10;;;;;;;-2.71;64.02;99374.84;5099689;28;20027;-78
2021/12/26 06:35:12;;;;;;;3.35;1.13;;;;;;;-2.81;63.97;99376.69;5100578;28;20028;-77
2021/12/26 06:37:37;;;;;;;2.72;1.23;;;;;;;-2.96;64.79;99372.84;5106072;28;20049;-78
2021/12/26 06:40:05;;;;;;;4.45;1.30;;;;;;;-2.92;64.23;99377.69;5106462;28;20024;-78
2021/12/26 06:42:32;;;;;;;3.25;0.98;;;;;;;-2.85;64.43;99376.13;5105411;28;20032;-78
2021/12/26 06:44:57;;;;;;;5.75;1.52;;;;;;;-2.87;64.62;99375.47;5106451;28;20028;-78
2021/12/26 06:47:24;;;;;;;7.13;1.30;;;;;;;-2.76;63.98;99379.72;5104906;28;20034;-78
2021/12/26 06:49:49;;;;;;;3.30;1.33;;;;;;;-2.79;64.54;99377.38;5101719;28;20040;-79
2021/12/26 06:52:15;;;;;;;2.05;0.80;;;;;;;-2.78;64.04;99373.75;5101394;28;20043;-78
2021/12/26 06:54:40;;;;;;;3.03;1.27;;;;;;;-2.78;64.68;99368.47;5100259;28;20103;-78
2021/12/26 06:57:07;;;;;;;2.65;1.20;;;;;;;-2.70;64.65;99360.69;5100738;28;20114;-80
2021/12/26 06:59:32;;;;;;;2.50;0.90;;;;;;;-2.59;64.33;99365.75;5099801;28;20074;-78
2021/12/26 07:01:59;;;;;;;2.25;0.95;;;;;;;-2.59;64.48;99365.75;5096351;28;20551;-78
2021/12/26 07:04:24;;;;;;;7.43;1.52;;;;;;;-2.56;63.78;99367.28;5099086;28;20024;-78
2021/12/26 07:06:49;;;;;;;5.38;1.48;;;;;;;-2.65;64.23;99363.69;5101193;28;20393;-78
2021/12/26 07:09:15;;;;;;;2.72;1.17;;;;;;;-2.63;64.53;99358.28;5101615;28;20032;-78
2021/12/26 07:11:41;;;;;;;3.25;1.25;;;;;;;-2.59;64.46;99365.75;5100030;28;20032;-79
2021/12/26 07:14:07;;;;;;;4.35;1.52;;;;;;;-2.58;64.46;99367.41;5103595;28;20385;-78
2021/12/26 07:16:32;;;;;;;6.88;1.83;;;;;;;-2.64;64.91;99361.88;5100166;28;20031;-78
2021/12/26 07:18:59;;;;;;;5.70;1.63;;;;;;;-2.58;64.83;99371.84;5103836;28;20031;-78
2021/12/26 07:21:24;;;;;;;3.28;1.02;;;;;;;-2.47;65.45;99380.38;5106766;28;20119;-78
2021/12/26 07:23:50;;;;;;;2.53;1.20;;;;;;;-2.37;65.02;99368.97;5106648;28;20028;-77
2021/12/26 07:26:15;;;;;;;2.67;1.00;;;;;;;-2.35;64.66;99373.13;5106214;28;20032;-78
2021/12/26 07:28:41;;;;;;;3.40;1.23;;;;;;;-2.41;65.13;99368.44;5101752;28;20024;-78
2021/12/26 07:31:06;;;;;;;3.83;1.35;;;;;;;-2.39;65.32;99374.38;5098666;28;20363;-77
2021/12/26 07:33:31;;;;;;;5.57;1.50;;;;;;;-2.39;65.38;99376.19;5096510;28;20032;-77
2021/12/26 07:35:57;;;;;;;3.05;1.38;;;;;;;-2.43;65.43;99385.38;5095236;28;20455;-78
2021/12/26 07:38:22;;;;;;;2.08;0.88;;;;;;;-2.45;65.43;99375.81;5094877;28;20039;-78
2021/12/26 07:40:47;;;;;;;2.60;1.13;;;;;;;-2.36;65.34;99375.91;5095584;28;20036;-78
2021/12/26 07:43:13;;;;;;;3.03;1.50;;;;;;;-2.35;65.25;99372.28;5095042;28;20042;-78
2021/12/26 07:45:42;;;;;;;2.55;1.15;;;;;;;-2.34;65.30;99364.22;5094724;28;20138;-77
2021/12/26 07:48:08;;;;;;;3.55;1.50;;;;;;;-2.36;65.28;99381.19;5095327;28;20054;-78
2021/12/26 07:50:33;;;;;;;3.78;1.30;;;;;;;-2.29;65.35;99383.06;5095606;28;20036;-78
2021/12/26 07:53:04;;;;;;;2.88;1.30;;;;;;;-2.29;65.36;99372.50;5096400;28;20564;-77
2021/12/26 07:55:30;;;;;;;3.47;1.40;;;;;;;-2.31;65.67;99382.38;5097690;28;20031;-78
2021/12/26 07:57:56;;;;;;;3.60;1.30;;;;;;;-2.16;65.51;99390.63;5098234;28;20048;-77
2021/12/26 08:00:21;;;;;;;3.97;1.70;;;;;;;-2.25;65.73;99386.25;5098494;28;20123;-77
2021/12/26 08:02:47;;;;;;;2.88;1.30;;;;;;;-2.33;66.03;99372.97;5097580;28;20143;-77
2021/12/26 08:05:14;;;;;;;3.45;1.20;;;;;;;-2.28;65.82;99378.63;5097195;28;20443;-77
2021/12/26 08:07:39;;;;;;;4.55;1.50;;;;;;;-2.23;65.85;99371.94;5097932;28;20075;-77
2021/12/26 08:10:06;;;;;;;4.50;1.63;;;;;;;-2.18;65.91;99374.13;5097340;28;20451;-77
2021/12/26 08:12:31;;;;;;;2.65;1.10;;;;;;;-2.14;66.19;99386.84;5098470;28;20039;-77
2021/12/26 08:14:59;;;;;;;3.25;1.42;;;;;;;-2.15;65.89;99374.63;5098335;28;20038;-77
2021/12/26 08:17:24;;;;;;;4.28;1.77;;;;;;;-2.16;66.77;99370.38;5097537;28;20032;-77
2021/12/26 08:19:50;;;;;;;8.23;1.98;;;;;;;-2.10;66.74;99367.09;5098145;28;20039;-76
2021/12/26 08:22:15;;;;;;;3.38;1.67;;;;;;;-2.06;66.68;99385.28;5102758;28;20036;-78
2021/12/26 08:24:41;;;;;;;3.28;1.10;;;;;;;-1.94;66.40;99370.88;5101472;28;20036;-78
2021/12/26 08:27:06;;;;;;;3.70;1.65;;;;;;;-2.06;66.36;99356.25;5103669;28;20035;-78
2021/12/26 08:29:31;;;;;;;3.05;1.15;;;;;;;-2.00;66.03;99369.69;5099931;28;20117;-79
2021/12/26 08:31:59;;;;;;;3.95;1.48;;;;;;;-2.04;66.43;99373.59;5099690;28;20032;-78
2021/12/26 08:34:25;;;;;;;4.47;1.58;;;;;;;-1.94;66.14;99379.63;5098752;28;20024;-76
2021/12/26 08:36:58;;;;;;;4.45;1.33;;;;;;;-1.98;65.98;99366.91;5096221;28;20032;-76
2021/12/26 08:39:26;;;;;;;6.60;1.60;;;;;;;-2.01;66.49;99364.56;5095921;28;20070;-76
2021/12/26 08:41:51;;;;;;;3.42;1.40;;;;;;;-1.98;66.49;99364.25;5094651;28;20107;-76
2021/12/26 08:44:16;;;;;;;4.30;1.52;;;;;;;-1.95;66.54;99379.78;5096077;28;20054;-77
2021/12/26 08:46:43;;;;;;;4.53;1.80;;;;;;;-1.88;66.37;99376.38;5096486;28;20032;-76
2021/12/26 08:49:10;;;;;;;2.60;1.20;;;;;;;-1.81;66.07;99374.00;5096338;28;20027;-76
2021/12/26 08:51:35;;;;;;;3.20;1.35;;;;;;;-1.96;66.83;99364.91;5094771;28;20106;-76
2021/12/26 08:54:02;;;;;;;2.42;1.30;;;;;;;-1.95;67.27;99370.03;5096079;28;20127;-76
2021/12/26 08:56:28;;;;;;;3.92;1.83;;;;;;;-1.88;67.22;99375.56;5096058;28;20032;-77
2021/12/26 08:58:54;;;;;;;;;;;;;;;-1.82;67.71;99375.78;5096366;28;20134;-77
2021/12/26 09:01:19;;;;;;;4.38;1.90;;;;;;;-1.79;66.72;99383.38;5096409;28;20042;-77
2021/12/26 09:03:44;;;;;;;6.60;1.43;;;;;;;-1.93;66.88;99380.44;5097679;28;20032;-77
2021/12/26 09:06:10;;;;;;;3.20;1.60;;;;;;;-1.79;66.85;99375.47;5099681;28;20254;-77
2021/12/26 09:08:35;;;;;;;4.07;1.60;;;;;;;-1.75;67.45;99376.00;5099983;28;20356;-78
2021/12/26 09:11:00;;;;;;;6.15;1.73;;;;;;;-1.78;67.59;99387.69;5100043;28;20075;-78
2021/12/26 09:13:26;;;;;;;4.57;2.00;;;;;;;-1.81;67.51;99387.19;5099406;28;20063;-77
2021/12/26 09:15:51;;;;;;;4.63;2.00;;;;;;;-1.72;67.47;99382.78;5098496;28;20032;-77
2021/12/26 09:18:16;;;;;;;3.42;1.73;;;;;;;-1.61;67.26;99382.56;5096339;28;20064;-77
2021/12/26 09:20:42;;;;;;;8.00;2.35;;;;;;;-1.49;66.62;99389.25;5096489;28;20028;-77
2021/12/26 09:23:07;;;;;;;4.47;1.50;;;;;;;-1.43;66.84;99375.41;5097108;28;20024;-77
2021/12/26 09:25:32;;;;;;;4.50;1.60;;;;;;;-1.42;66.72;99399.06;5097186;28;20258;-78
2021/12/26 09:27:58;;;;;;;4.43;1.90;;;;;;;-1.37;66.76;99382.75;5096303;28;20257;-77
2021/12/26 09:30:23;;;;;;;3.73;1.50;;;;;;;-1.43;66.82;99393.91;5096323;28;20355;-77
2021/12/26 09:32:50;;;;;;;2.95;1.33;;;;;;;-1.47;66.95;99392.59;5097685;28;20040;-77
2021/12/26 09:35:16;;;;;;;6.07;2.00;;;;;;;-1.35;66.46;99388.72;5095845;28;20032;-77
2021/12/26 09:37:43;;;;;;;7.63;1.90;;;;;;;-1.35;66.86;99390.53;5094972;28;20119;-77
2021/12/26 09:40:12;;;;;;;4.13;1.77;;;;;;;-1.33;66.99;99384.09;5096842;28;20447;-77
2021/12/26 09:42:37;;;;;;;5.40;1.40;;;;;;;-1.36;66.97;99376.47;5097680;28;20462;-77
2021/12/26 09:45:05;;;;;;;5.65;1.88;;;;;;;-1.37;67.30;99389.84;5097390;28;20055;-77
2021/12/26 09:47:30;;;;;;;4.15;1.70;;;;;;;-1.36;67.02;99396.78;5095920;28;20036;-77
2021/12/26 09:49:56;;;;;;;4.75;2.00;;;;;;;-1.47;67.92;99384.66;5095884;28;20032;-77
2021/12/26 09:52:21;;;;;;;3.45;1.42;;;;;;;-1.44;68.26;99384.34;5096302;28;20065;-77
2021/12/26 09:54:47;;;;;;;4.10;1.80;;;;;;;-1.41;68.26;99381.38;5095047;28;20494;-77
2021/12/26 09:57:13;;;;;;;4.15;2.05;;;;;;;-1.31;67.87;99398.00;5095994;28;20458;-77
2021/12/26 09:59:40;;;;;;;6.05;2.38;;;;;;;-1.31;67.75;99387.41;5094616;28;20028;-78
2021/12/26 10:02:09;;;;;;;5.60;2.00;;;;;;;-1.29;67.80;99388.09;5098064;28;20036;-78
2021/12/26 10:04:36;;;;;;;4.38;1.88;;;;;;;-1.26;68.08;99376.41;5095940;28;20044;-77
2021/12/26 10:07:14;;;;;;;3.67;1.52;;;;;;;-1.24;68.30;99380.50;5095582;28;20024;-78
2021/12/26 10:09:41;;;;;;;4.03;1.60;;;;;;;-1.12;68.13;99371.38;5095992;28;20467;-78
2021/12/26 10:12:08;;;;;;;5.25;1.88;;;;;;;-1.00;67.63;99366.63;5094982;28;20484;-77
2021/12/26 10:14:37;;;;;;;9.38;2.20;;;;;;;-0.95;67.68;99369.63;5094773;28;20107;-78
2021/12/26 10:17:02;;;;;;;5.47;2.08;;;;;;;-0.92;68.11;99365.84;5094810;28;20035;-77
2021/12/26 10:19:35;;;;;;;3.33;1.45;;;;;;;-0.82;68.34;99366.56;5095007;28;20028;-78
2021/12/26 10:22:01;;;;;;;5.75;2.67;;;;;;;-0.72;68.05;99354.06;5094621;28;20040;-77
2021/12/26 10:24:30;;;;;;;5.68;2.60;;;;;;;-0.58;68.22;99349.97;5094619;28;20028;-77
2021/12/26 10:27:11;;;;;;;5.25;2.00;;;;;;;-0.49;67.74;99344.53;5095316;28;20040;-77
2021/12/26 10:29:39;;;;;;;5.32;1.92;;;;;;;-0.43;67.63;99346.53;5094422;28;20043;-78
2021/12/26 10:32:10;;;;;;;5.43;2.03;;;;;;;-0.28;67.01;99340.63;5095495;28;20032;-77
2021/12/26 10:34:46;;;;;;;5.25;2.08;;;;;;;-0.08;67.40;99336.69;5094739;28;20036;-77
2021/12/26 10:37:15;;;;;;;;;;;;;;;-0.04;66.88;99330.91;5094678;28;20028;-77
2021/12/26 10:39:55;;;;;;;5.95;2.00;;;;;;;-0.01;67.12;99325.28;5094483;28;19916;-77
2021/12/26 10:42:30;;;;;;;4.63;1.83;;;;;;;0.05;66.94;99328.25;5094380;28;20038;-77
2021/12/26 10:45:10;;;;;;;5.03;1.80;;;;;;;0.12;67.29;99326.63;5093660;28;20028;-76
2021/12/26 10:47:38;;;;;;;8.77;2.60;;;;;;;0.17;66.66;99322.50;5094761;28;20059;-77
2021/12/26 10:50:19;;;;;;;4.43;1.88;;;;;;;0.21;66.97;99325.63;5094599;28;20040;-77
2021/12/26 10:52:49;;;;;;;5.43;2.20;;;;;;;0.26;67.93;99313.53;5092605;28;20032;-77
2021/12/26 10:55:17;;;;;;;9.02;2.63;;;;;;;0.33;67.54;99317.19;5093345;28;20032;-76
2021/12/26 10:57:51;;;;;;;5.53;2.00;;;;;;;0.47;67.23;99320.16;5093212;28;20131;-76
2021/12/26 11:00:24;;;;;;;6.45;2.88;;;;;;;0.36;67.41;99323.94;5093355;28;20126;-76
2021/12/26 11:02:51;;;;;;;5.13;2.10;;;;;;;0.17;67.73;99313.72;5093405;28;20386;-76
2021/12/26 11:05:22;;;;;;;6.80;2.75;;;;;;;0.24;68.15;99314.69;5092956;28;20107;-77
2021/12/26 11:07:56;;;;;;;6.60;2.67;;;;;;;0.25;67.96;99306.56;5093379;28;20020;-76
2021/12/26 11:10:46;;;;;;;6.38;2.47;;;;;;;0.24;67.96;99310.22;5093274;28;20040;-77
2021/12/26 11:13:23;;;;;;;5.53;2.17;;;;;;;0.23;67.69;99305.91;5090213;28;20101;-77
2021/12/26 11:15:53;;;;;;;5.22;1.90;;;;;;;0.31;68.38;99305.94;5092929;28;20427;-77
2021/12/26 11:18:19;;;;;;;6.53;2.80;;;;;;;0.30;68.16;99304.28;5093379;28;20024;-77
2021/12/26 11:20:48;;;;;;;8.38;2.55;;;;;;;0.27;67.91;99298.47;5093708;28;20058;-77
2021/12/26 11:23:17;;;;;;;4.97;2.38;;;;;;;0.28;67.76;99295.66;5093180;28;20176;-77
2021/12/26 11:25:45;;;;;;;6.22;2.55;;;;;;;0.33;68.15;99297.81;5093075;28;20526;-77
2021/12/26 11:28:14;;;;;;;6.75;3.15;;;;;;;0.53;68.83;99293.81;5095827;28;20049;-77
2021/12/26 11:30:44;;;;;;;4.72;2.38;;;;;;;0.51;67.17;99295.81;5097168;28;20508;-77
2021/12/26 11:33:11;;;;;;;9.20;2.97;;;;;;;0.54;67.64;99300.75;5097493;28;20118;-77
2021/12/26 11:35:39;;;;;;;6.07;2.75;;;;;;;0.58;67.46;99290.63;5097631;28;20035;-76
2021/12/26 11:38:09;;;;;;;5.50;2.30;;;;;;;0.58;67.73;99285.34;5097318;28;20462;-76
2021/12/26 11:40:35;;;;;;;9.05;3.20;;;;;;;0.53;68.19;99285.03;5097569;28;20035;-77